Time;durP1;ratioP1;P1;durP2;ratioP2;P2;SDS_P1;SDS_P2;PMS_P1;PMS_P2;Temp;Humidity;BMP_temperature;BMP_pressure;BME280_temperature;BME280_humidity;BME280_pressure;Samples;Min_cycle;Max_cycle;Signal;HPM_P1;HPM_P2
2021/04/19 00:05:04;;;;;;;1999.90;999.90;;;;;;;5.76;78.27;101623.44;15836128;28;20127;-60
2021/04/19 00:12:36;;;;;;;1999.90;999.90;;;;;;;5.79;78.16;101617.34;15814808;28;20073;-62
2021/04/19 00:20:09;;;;;;;1999.90;999.90;;;;;;;5.78;77.80;101618.44;15814151;28;20065;-62
2021/04/19 00:27:40;;;;;;;1999.90;999.90;;;;;;;5.61;78.25;101610.41;15833304;28;20047;-61
2021/04/19 00:35:14;;;;;;;1999.90;999.90;;;;;;;5.68;77.29;101612.91;15814517;28;20040;-61
2021/04/19 00:42:48;;;;;;;1999.90;999.90;;;;;;;5.66;77.50;101606.84;15870606;28;20035;-62
2021/04/19 00:50:23;;;;;;;1999.90;999.90;;;;;;;5.60;77.90;101599.63;15832944;28;20385;-62
2021/04/19 00:57:55;;;;;;;1999.90;999.90;;;;;;;5.55;77.72;101603.25;15813774;28;20055;-62
2021/04/19 01:05:30;;;;;;;1999.90;999.90;;;;;;;5.52;77.78;101601.00;15830105;28;20036;-62
2021/04/19 01:13:05;;;;;;;1999.90;999.90;;;;;;;5.55;77.03;101603.25;15830247;28;20100;-62
2021/04/19 01:20:38;;;;;;;;;;;;;;;5.56;77.17;101601.31;15784155;28;20395;-62
2021/04/19 01:28:14;;;;;;;1999.90;999.90;;;;;;;5.45;77.64;101617.91;15806678;28;19919;-62
2021/04/19 01:35:47;;;;;;;1999.90;999.90;;;;;;;5.39;77.74;101618.19;15808880;28;20107;-61
2021/04/19 01:43:20;;;;;;;1999.90;999.90;;;;;;;5.33;78.00;101606.28;15856429;28;20055;-61
2021/04/19 01:50:57;;;;;;;1999.90;999.90;;;;;;;5.50;77.08;101603.22;15845875;28;20043;-62
2021/04/19 01:58:29;;;;;;;1999.90;999.90;;;;;;;5.45;77.40;101604.09;15826743;28;20076;-61
2021/04/19 02:06:06;;;;;;;1999.90;999.90;;;;;;;5.29;77.86;101613.47;15818583;28;20036;-62
2021/04/19 02:13:42;;;;;;;1999.90;999.90;;;;;;;5.33;78.11;101602.69;15828736;28;20051;-62
2021/04/19 02:21:21;;;;;;;1999.90;999.90;;;;;;;5.54;78.28;101600.75;15795003;28;20051;-61
2021/04/19 02:28:59;;;;;;;1999.90;999.90;;;;;;;5.50;78.36;101609.59;15846155;28;20052;-62
2021/04/19 02:36:31;;;;;;;1999.90;999.90;;;;;;;5.49;78.69;101610.72;15824750;28;20059;-62
2021/04/19 02:44:04;;;;;;;1999.90;999.90;;;;;;;5.62;78.49;101614.03;15813530;28;20491;-62
2021/04/19 02:51:50;;;;;;;1999.90;999.90;;;;;;;5.72;77.41;101614.00;15875675;28;20051;-62
2021/04/19 02:59:24;;;;;;;1999.90;999.90;;;;;;;5.70;78.08;101608.75;15816716;28;20039;-62
2021/04/19 03:07:01;;;;;;;1999.90;999.90;;;;;;;5.67;78.47;101612.09;15818111;28;20055;-61
2021/04/19 03:14:39;;;;;;;1999.90;999.90;;;;;;;5.66;78.35;101615.97;15801074;28;20135;-62
2021/04/19 03:22:16;;;;;;;1999.90;999.90;;;;;;;5.72;78.20;101606.53;15818853;28;20118;-62
2021/04/19 03:29:49;;;;;;;1999.90;999.90;;;;;;;5.74;78.49;101609.88;15846364;28;20044;-62
2021/04/19 03:37:28;;;;;;;1999.90;999.90;;;;;;;5.77;78.36;101603.78;15845995;28;20044;-62
2021/04/19 03:45:05;;;;;;;1999.90;999.90;;;;;;;5.87;77.13;101607.63;15803330;28;20184;-61
2021/04/19 03:52:59;;;;;;;1999.90;999.90;;;;;;;5.71;77.30;101610.41;15822554;28;20048;-61
2021/04/19 04:00:40;;;;;;;1999.90;999.90;;;;;;;5.58;77.27;101601.84;15823670;28;20506;-61
2021/04/19 04:08:45;;;;;;;1999.90;999.90;;;;;;;5.37;76.77;101618.47;15785870;28;20135;-64
2021/04/19 04:16:19;;;;;;;1999.90;999.90;;;;;;;5.36;78.77;101611.28;15849857;28;20058;-63
2021/04/19 04:24:09;;;;;;;1999.90;999.90;;;;;;;5.76;76.87;101615.13;15859384;28;20565;-63
2021/04/19 04:31:40;;;;;;;1999.90;999.90;;;;;;;5.79;77.34;101618.16;15841672;28;20408;-63
2021/04/19 04:39:16;;;;;;;1999.90;999.90;;;;;;;5.65;77.65;101624.56;15786047;28;20055;-62
2021/04/19 04:47:03;;;;;;;1999.90;999.90;;;;;;;5.63;79.55;101640.63;15800035;28;20396;-62
2021/04/19 04:54:38;;;;;;;1999.90;999.90;;;;;;;6.02;80.03;101640.88;15801412;28;20135;-62
2021/04/19 05:02:19;;;;;;;1999.90;999.90;;;;;;;6.45;80.30;101639.34;15824846;28;20471;-61
2021/04/19 05:09:53;;;;;;;1999.90;999.90;;;;;;;6.59;79.97;101643.19;15845863;22;20040;-52
2021/04/19 05:17:24;;;;;;;1999.90;999.90;;;;;;;7.34;78.43;101637.47;15831872;28;20411;-54
2021/04/19 05:24:57;;;;;;;1999.90;999.90;;;;;;;7.85;77.76;101644.56;15924841;27;20497;-51
2021/04/19 05:32:28;;;;;;;1999.90;999.90;;;;;;;8.18;76.95;101640.88;15898796;27;20055;-52
2021/04/19 05:40:01;;;;;;;1999.90;999.90;;;;;;;8.46;76.07;101643.97;15865965;27;20042;-53
2021/04/19 05:47:32;;;;;;;1999.90;999.90;;;;;;;8.43;76.01;101642.56;15876120;27;20468;-54
2021/04/19 05:55:07;;;;;;;1999.90;999.90;;;;;;;8.45;75.77;101640.34;15845231;28;20095;-54
2021/04/19 06:02:52;;;;;;;1999.90;999.90;;;;;;;8.40;75.32;101651.53;15860610;28;20375;-57
2021/04/19 06:10:30;;;;;;;1999.90;999.90;;;;;;;8.37;76.84;101644.59;15860033;28;20077;-57
2021/04/19 06:18:13;;;;;;;1999.90;999.90;;;;;;;8.39;77.50;101644.31;15841504;28;20079;-52
2021/04/19 06:25:47;;;;;;;1999.90;999.90;;;;;;;8.73;77.63;101654.44;15841297;28;20039;-52
2021/04/19 06:33:20;;;;;;;1999.90;999.90;;;;;;;8.90;78.33;101658.41;15840949;28;20173;-55
2021/04/19 06:40:52;;;;;;;1999.90;999.90;;;;;;;9.46;76.44;101659.53;15840651;28;20068;-54
2021/04/19 06:48:24;;;;;;;1999.90;999.90;;;;;;;9.30;77.48;101660.91;15841593;28;20105;-55
2021/04/19 06:55:57;;;;;;;1999.90;999.90;;;;;;;9.82;76.13;101654.22;15843867;28;20039;-52
2021/04/19 07:03:31;;;;;;;1999.90;999.90;;;;;;;9.88;76.19;101650.19;15844115;27;20598;-57
2021/04/19 07:11:05;;;;;;;1999.90;999.90;;;;;;;10.11;75.24;101653.97;15858700;28;20067;-56
2021/04/19 07:18:37;;;;;;;1999.90;999.90;;;;;;;10.37;74.46;101645.97;15853061;28;20321;-52
2021/04/19 07:26:10;;;;;;;1999.90;999.90;;;;;;;10.76;73.93;101651.03;15835376;28;20043;-55
2021/04/19 07:33:42;;;;;;;1999.90;999.90;;;;;;;10.82;73.32;101651.72;15867263;28;20415;-54
2021/04/19 07:41:15;;;;;;;1999.90;999.90;;;;;;;10.87;75.35;101652.47;15835644;28;20143;-56
2021/04/19 07:48:48;;;;;;;1999.90;999.90;;;;;;;11.37;73.03;101629.28;15849333;28;20043;-55
2021/04/19 07:56:21;;;;;;;1999.90;999.90;;;;;;;11.10;73.76;101644.13;15849394;28;20052;-55
2021/04/19 08:04:05;;;;;;;1999.90;999.90;;;;;;;11.00;74.70;101664.75;15832173;28;20044;-57
2021/04/19 08:11:43;;;;;;;1999.90;999.90;;;;;;;11.55;73.27;101659.00;15849619;28;20055;-53
2021/04/19 08:19:17;;;;;;;1999.90;999.90;;;;;;;11.42;73.84;101657.09;15866535;28;20031;-52
2021/04/19 08:26:52;;;;;;;1999.90;999.90;;;;;;;11.37;74.38;101643.25;15865535;28;20472;-51
2021/04/19 08:34:24;;;;;;;1999.90;999.90;;;;;;;11.25;73.63;101635.38;15846663;28;20053;-59
2021/04/19 08:41:59;;;;;;;1999.90;999.90;;;;;;;11.29;74.48;101633.63;15848715;28;20035;-60
2021/04/19 08:49:31;;;;;;;1999.90;999.90;;;;;;;11.68;73.39;101634.94;15865217;28;20130;-58
2021/04/19 08:57:05;;;;;;;1999.90;999.90;;;;;;;11.62;73.32;101628.63;15847240;28;20048;-59
2021/04/19 09:04:37;;;;;;;1999.90;999.90;;;;;;;11.16;75.79;101632.53;15847228;28;20048;-56
2021/04/19 09:12:28;;;;;;;1999.90;999.90;;;;;;;11.38;75.70;101609.38;15847084;28;20040;-57
2021/04/19 09:20:00;;;;;;;1999.90;999.90;;;;;;;11.26;76.66;101607.16;15845364;28;20450;-59
2021/04/19 09:27:46;;;;;;;1999.90;999.90;;;;;;;11.52;75.35;101634.47;15846287;28;20049;-60
2021/04/19 09:35:41;;;;;;;1999.90;999.90;;;;;;;11.44;75.01;101635.22;15843415;28;20070;-57
2021/04/19 09:43:14;;;;;;;1999.90;999.90;;;;;;;11.58;74.55;101633.22;15861585;28;20122;-58
2021/04/19 09:50:45;;;;;;;1999.90;999.90;;;;;;;11.84;74.32;101630.63;15860997;28;20123;-55
2021/04/19 09:58:18;;;;;;;1999.90;999.90;;;;;;;12.08;74.42;101633.88;15861099;28;20055;-58
2021/04/19 10:05:52;;;;;;;1999.90;999.90;;;;;;;11.62;75.68;101614.66;15843801;28;20036;-58
2021/04/19 10:13:36;;;;;;;1999.90;999.90;;;;;;;11.81;75.62;101612.50;15861456;28;20778;-57
2021/04/19 10:21:22;;;;;;;1999.90;999.90;;;;;;;11.72;75.05;101613.56;15859192;28;20133;-60
2021/04/19 10:28:56;;;;;;;1999.90;999.90;;;;;;;12.23;74.06;101620.63;15830841;28;20082;-59
2021/04/19 10:36:29;;;;;;;1999.90;999.90;;;;;;;11.87;75.26;101621.56;15823462;28;20051;-60
2021/04/19 10:44:02;;;;;;;1999.90;999.90;;;;;;;11.92;75.60;101621.47;15829631;28;20101;-61
2021/04/19 10:51:35;;;;;;;;;;;;;;;12.43;74.28;101604.09;15836114;28;21302;-58
2021/04/19 10:59:09;;;;;;;1999.90;999.90;;;;;;;12.62;74.03;101609.41;15828670;28;20357;-58
2021/04/19 11:06:40;;;;;;;1999.90;999.90;;;;;;;12.96;72.43;101603.03;15856621;22;20498;-77
2021/04/19 11:14:16;;;;;;;1999.90;999.90;;;;;;;12.86;73.10;101610.94;15799497;28;20071;-77
2021/04/19 11:22:15;;;;;;;1999.90;999.90;;;;;;;12.29;75.37;101583.75;15830851;22;20123;-84
2021/04/19 11:30:03;;;;;;;1999.90;999.90;;;;;;;13.14;73.71;101575.06;15782331;28;20526;-84
2021/04/19 11:38:10;;;;;;;1999.90;999.90;;;;;;;14.34;70.42;101587.97;15759364;28;20214;-85
2021/04/19 11:45:47;;;;;;;1999.90;999.90;;;;;;;14.54;69.59;101605.25;15744685;28;20082;-85
2021/04/19 11:53:25;;;;;;;1999.90;999.90;;;;;;;14.08;68.09;101567.63;15745361;28;20552;-85
2021/04/19 12:01:04;;;;;;;1999.90;999.90;;;;;;;15.45;66.41;101558.63;15731323;28;20230;-84
2021/04/19 12:08:39;;;;;;;1999.90;999.90;;;;;;;17.24;62.03;101560.56;15727125;28;20113;-83
2021/04/19 12:16:12;;;;;;;1999.90;999.90;;;;;;;16.74;62.49;101559.88;15735150;28;20048;-82
2021/04/19 12:23:45;;;;;;;1999.90;999.90;;;;;;;17.11;61.60;101579.53;15757774;28;20064;-83
2021/04/19 12:31:22;;;;;;;;;;;;;;;16.49;62.80;101575.16;15739353;28;20084;-84
2021/04/19 12:38:57;;;;;;;1999.90;999.90;;;;;;;17.12;61.52;101555.81;15739827;28;20019;-84
2021/04/19 12:46:34;;;;;;;1999.90;999.90;;;;;;;16.94;61.04;101507.34;15719581;28;20048;-85
2021/04/19 12:54:11;;;;;;;1999.90;999.90;;;;;;;19.68;54.39;101516.06;15756370;28;20064;-84
2021/04/19 13:01:47;;;;;;;1999.90;999.90;;;;;;;16.90;62.08;101511.25;15724441;28;20108;-84
2021/04/19 13:09:19;;;;;;;1999.90;999.90;;;;;;;16.26;63.93;101492.31;15736869;28;20487;-83
2021/04/19 13:16:52;;;;;;;1999.90;999.90;;;;;;;19.86;55.24;101488.06;15721115;28;20134;-82
2021/04/19 13:24:23;;;;;;;1999.90;999.90;;;;;;;18.59;57.08;101475.78;15732289;28;20064;-83
2021/04/19 13:31:56;;;;;;;1999.90;999.90;;;;;;;26.58;40.21;101462.53;15732400;28;20045;-84
2021/04/19 13:39:28;;;;;;;1999.90;999.90;;;;;;;25.83;41.23;101481.13;15753174;28;20495;-83
2021/04/19 13:47:01;;;;;;;1999.90;999.90;;;;;;;26.99;38.31;101462.41;15739291;28;20106;-84
2021/04/19 13:54:32;;;;;;;1999.90;999.90;;;;;;;20.09;54.24;101451.22;15745692;28;20876;-82
2021/04/19 14:02:05;;;;;;;1999.90;999.90;;;;;;;18.61;56.92;101422.50;15714402;28;20060;-83
2021/04/19 14:09:41;;;;;;;1999.90;999.90;;;;;;;18.81;57.81;101429.84;15726179;28;20036;-84
2021/04/19 14:17:15;;;;;;;1999.90;999.90;;;;;;;18.10;59.40;101411.28;15708814;28;20055;-83
2021/04/19 14:24:52;;;;;;;1999.90;999.90;;;;;;;18.43;58.13;101425.75;15727211;28;20402;-84
2021/04/19 14:32:27;;;;;;;1999.90;999.90;;;;;;;17.77;59.93;101391.94;15719900;28;20078;-83
2021/04/19 14:40:00;;;;;;;1999.90;999.90;;;;;;;17.96;59.25;101388.34;15742747;28;20064;-84
2021/04/19 14:47:43;;;;;;;1999.90;999.90;;;;;;;17.82;59.31;101367.06;15734586;28;20056;-84
2021/04/19 14:55:47;;;;;;;1999.90;999.90;;;;;;;18.32;59.38;101387.97;15731633;28;20041;-83
2021/04/19 15:11:15;;;;;;;1999.90;999.90;;;;;;;17.79;59.56;101358.50;15736345;28;20130;-86
2021/04/19 15:19:30;;;;;;;1999.90;999.90;;;;;;;17.91;60.72;101366.84;15745471;28;20056;-84
2021/04/19 15:27:07;;;;;;;1999.90;999.90;;;;;;;17.92;61.07;101342.25;15698626;28;20040;-84
2021/04/19 15:34:49;;;;;;;1999.90;999.90;;;;;;;17.45;61.54;101331.84;15741321;28;20116;-84
2021/04/19 15:42:28;;;;;;;1999.90;999.90;;;;;;;17.85;60.66;101326.81;15718835;28;20050;-84
2021/04/19 15:50:13;;;;;;;1999.90;999.90;;;;;;;17.51;62.05;101305.00;15714117;28;20476;-83
2021/04/19 15:57:53;;;;;;;1999.90;999.90;;;;;;;17.30;62.47;101339.16;15717867;28;20052;-84
2021/04/19 16:05:25;;;;;;;1999.90;999.90;;;;;;;17.53;62.07;101331.66;15717822;28;20188;-84
2021/04/19 16:13:15;;;;;;;;;;;;;;;;;;;;;
2021/04/19 16:20:51;;;;;;;1999.90;999.90;;;;;;;17.67;62.11;101336.81;15815028;28;20134;-82
2021/04/19 16:28:35;;;;;;;1999.90;999.90;;;;;;;17.02;63.07;101334.38;15783038;28;20120;-82
2021/04/19 16:36:14;;;;;;;1999.90;999.90;;;;;;;17.27;62.74;101322.94;15738233;28;20052;-83
2021/04/19 16:44:12;;;;;;;1999.90;999.90;;;;;;;17.08;63.19;101331.28;15739584;28;20074;-83
2021/04/19 16:51:47;;;;;;;1999.90;999.90;;;;;;;17.23;62.92;101325.66;15736894;28;20261;-82
2021/04/19 16:59:24;;;;;;;1999.90;999.90;;;;;;;17.04;63.42;101325.56;15737644;28;20052;-85
2021/04/19 17:06:58;;;;;;;1999.90;999.90;;;;;;;16.82;64.36;101320.53;15752934;28;20056;-84
2021/04/19 17:14:45;;;;;;;1999.90;999.90;;;;;;;16.89;64.48;101324.38;15752381;28;20041;-84
2021/04/19 17:22:24;;;;;;;1999.90;999.90;;;;;;;16.68;64.48;101318.97;15715346;28;20055;-84
2021/04/19 17:30:22;;;;;;;1999.90;999.90;;;;;;;16.63;64.86;101324.81;15735475;28;20115;-85
2021/04/19 17:38:05;;;;;;;1999.90;999.90;;;;;;;16.25;65.55;101310.41;15721069;28;20068;-83
2021/04/19 17:45:48;;;;;;;;;;;;;;;16.41;65.19;101329.03;15740192;28;20047;-83
2021/04/19 18:01:41;;;;;;;1999.90;999.90;;;;;;;15.97;66.60;101322.47;15738938;28;20375;-83
2021/04/19 18:09:13;;;;;;;1999.90;999.90;;;;;;;15.67;67.21;101332.38;15705286;28;20052;-82
2021/04/19 18:17:13;;;;;;;1999.90;999.90;;;;;;;15.36;68.23;101318.88;15738029;28;20048;-82
2021/04/19 18:24:55;;;;;;;1999.90;999.90;;;;;;;15.21;68.73;101328.78;15715068;28;20040;-84
2021/04/19 18:32:30;;;;;;;1999.90;999.90;;;;;;;15.26;68.90;101351.88;15741807;28;20044;-83
2021/04/19 18:41:05;;;;;;;1999.90;999.90;;;;;;;14.98;69.45;101329.22;15777070;28;20063;-83
2021/04/19 18:56:55;;;;;;;1999.90;999.90;;;;;;;14.78;71.05;101382.66;15721779;28;20037;-83
2021/04/19 19:13:17;;;;;;;1999.90;999.90;;;;;;;14.69;70.63;101375.16;15714501;28;20433;-84
2021/04/19 19:21:25;;;;;;;1999.90;999.90;;;;;;;14.57;70.36;101357.44;15736785;28;20067;-85
2021/04/19 19:29:21;;;;;;;1999.90;999.90;;;;;;;14.58;71.01;101382.34;15708844;28;20055;-85
2021/04/19 19:36:53;;;;;;;1999.90;999.90;;;;;;;14.27;70.79;101363.09;15729421;28;20147;-84
2021/04/19 19:44:34;;;;;;;1999.90;999.90;;;;;;;14.07;71.37;101355.53;15748305;28;20140;-84
2021/04/19 19:52:06;;;;;;;1999.90;999.90;;;;;;;14.11;70.78;101362.06;15766904;28;20036;-84
2021/04/19 19:59:40;;;;;;;1999.90;999.90;;;;;;;13.70;71.16;101349.63;15729593;28;20041;-82
2021/04/19 20:07:12;;;;;;;1999.90;999.90;;;;;;;13.30;71.43;101318.34;15738525;28;20052;-83
2021/04/19 20:14:45;;;;;;;1999.90;999.90;;;;;;;13.29;71.42;101342.75;15738077;28;20082;-83
2021/04/19 20:22:19;;;;;;;1999.90;999.90;;;;;;;13.06;71.52;101335.72;15731963;28;20044;-84
2021/04/19 20:30:03;;;;;;;1999.90;999.90;;;;;;;12.77;72.07;101330.03;15714720;28;20097;-85
2021/04/19 20:37:35;;;;;;;1999.90;999.90;;;;;;;12.61;72.29;101329.72;15739725;28;20041;-82
2021/04/19 20:45:15;;;;;;;1999.90;999.90;;;;;;;12.45;72.54;101331.41;15753650;28;20041;-84
2021/04/19 20:52:47;;;;;;;1999.90;999.90;;;;;;;12.27;72.36;101327.78;15754727;28;20045;-82
2021/04/19 21:00:22;;;;;;;1999.90;999.90;;;;;;;12.18;72.05;101335.38;15726881;28;20496;-84
2021/04/19 21:07:53;;;;;;;1999.90;999.90;;;;;;;11.96;72.30;101302.78;15733638;28;20044;-80
2021/04/19 21:15:26;;;;;;;1999.90;999.90;;;;;;;12.00;72.64;101313.00;15758957;28;20056;-82
2021/04/19 21:22:58;;;;;;;1999.90;999.90;;;;;;;11.87;72.78;101297.19;15746608;28;20133;-82
2021/04/19 21:30:33;;;;;;;1999.90;999.90;;;;;;;11.53;74.15;101307.13;15707839;28;20040;-82
2021/04/19 21:38:05;;;;;;;1999.90;999.90;;;;;;;11.74;73.30;101292.53;15743213;28;20044;-82
2021/04/19 21:45:39;;;;;;;1999.90;999.90;;;;;;;11.86;73.24;101259.19;15725278;28;20507;-83
2021/04/19 21:53:11;;;;;;;1999.90;999.90;;;;;;;11.84;73.35;101261.50;15749352;28;20056;-82
2021/04/19 22:00:44;;;;;;;1999.90;999.90;;;;;;;12.19;72.51;101287.47;15794371;28;20112;-81
2021/04/19 22:08:15;;;;;;;1999.90;999.90;;;;;;;11.78;71.03;101260.81;15793301;28;20075;-81
2021/04/19 22:15:48;;;;;;;1999.90;999.90;;;;;;;11.87;70.25;101287.97;15765153;28;20086;-85
2021/04/19 22:23:21;;;;;;;1999.90;999.90;;;;;;;11.89;70.01;101296.88;15770636;28;20021;-80
2021/04/19 22:30:54;;;;;;;1999.90;999.90;;;;;;;11.99;69.89;101304.94;15793880;28;20080;-80
2021/04/19 22:38:26;;;;;;;1999.90;999.90;;;;;;;11.81;69.69;101282.53;15765155;28;20064;-84
2021/04/19 22:45:58;;;;;;;1999.90;999.90;;;;;;;11.82;69.36;101294.56;15765635;28;20044;-83
2021/04/19 22:53:30;;;;;;;1999.90;999.90;;;;;;;11.55;69.56;101306.78;15747851;28;20032;-85
2021/04/19 23:01:05;;;;;;;1999.90;999.90;;;;;;;11.23;70.12;101288.47;15754258;28;20460;-84
2021/04/19 23:08:36;;;;;;;1999.90;999.90;;;;;;;11.06;70.05;101283.66;15738912;28;20553;-84
2021/04/19 23:16:12;;;;;;;1999.90;999.90;;;;;;;11.28;69.17;101305.09;15776619;23;20425;31
2021/04/19 23:23:44;;;;;;;1999.90;999.90;;;;;;;11.13;69.38;101317.50;15661250;28;20041;-57
2021/04/19 23:31:15;;;;;;;1999.90;999.90;;;;;;;11.01;69.43;101294.97;15777498;22;20091;-59
2021/04/19 23:38:48;;;;;;;1999.90;999.90;;;;;;;10.68;69.98;101294.47;15931718;27;20104;-59
2021/04/19 23:46:19;;;;;;;1999.90;999.90;;;;;;;10.71;69.52;101291.03;15914318;27;20075;-57
2021/04/19 23:53:52;;;;;;;1999.90;999.90;;;;;;;10.68;69.81;101291.69;15925725;27;20031;-57
